Time;durP1;ratioP1;P1;durP2;ratioP2;P2;SDS_P1;SDS_P2;PMS_P1;PMS_P2;Temp;Humidity;BMP_temperature;BMP_pressure;BME280_temperature;BME280_humidity;BME280_pressure;Samples;Min_cycle;Max_cycle;Signal;HPM_P1;HPM_P2
2022/09/24 00:01:44;;;;;;;;;;;;;;;13.88;67.67;100912.19;5027319;28;19922;-74
2022/09/24 00:04:10;;;;;;;;;;;;;;;13.87;67.66;100926.13;5026625;28;20055;-74
2022/09/24 00:06:39;;;;;;;;;;;;;;;13.90;67.56;100926.03;5027199;28;19925;-74
2022/09/24 00:09:05;;;;;;;;;;;;;;;13.87;66.68;100913.94;5029882;28;20000;-75
2022/09/24 00:11:31;;;;;;;;;;;;;;;13.89;66.66;100922.56;5030582;28;19933;-74
2022/09/24 00:13:57;;;;;;;;;;;;;;;13.92;66.39;100912.03;5029017;28;19932;-74
2022/09/24 00:16:24;;;;;;;;;;;;;;;13.88;66.47;100902.56;5028536;28;20389;-74
2022/09/24 00:18:49;;;;;;;;;;;;;;;13.85;66.17;100892.22;5018055;28;19960;-74
2022/09/24 00:21:19;;;;;;;;;;;;;;;13.89;66.18;100900.81;5026470;28;19932;-74
2022/09/24 00:23:48;;;;;;;;;;;;;;;13.80;66.27;100899.34;5025477;28;19924;-74
2022/09/24 00:28:58;;;;;;;;;;;;;;;13.79;66.57;100900.25;5045769;28;19927;-74
2022/09/24 00:31:23;;;;;;;;;;;;;;;13.84;66.21;100900.97;5048155;28;20379;-74
2022/09/24 00:33:51;;;;;;;;;;;;;;;13.81;65.94;100895.00;5050258;28;19942;-77
2022/09/24 00:36:17;;;;;;;;;;;;;;;13.77;65.43;100895.09;5051242;28;20404;-76
2022/09/24 00:38:42;;;;;;;;;;;;;;;13.83;65.55;100896.66;5051790;28;19924;-77
2022/09/24 00:41:07;;;;;;;;;;;;;;;13.74;65.41;100892.59;5053659;28;19916;-77
2022/09/24 00:43:35;;;;;;;;;;;;;;;13.74;65.24;100889.09;5051606;28;20011;-77
2022/09/24 00:46:13;;;;;;;;;;;;;;;13.78;65.90;100888.13;5051518;28;19925;-77
2022/09/24 00:48:40;;;;;;;;;;;;;;;13.75;66.22;100889.06;5032821;28;19955;-77
2022/09/24 00:51:07;;;;;;;;;;;;;;;13.72;66.09;100886.56;5049131;28;19921;-77
2022/09/24 00:53:33;;;;;;;;;;;;;;;13.67;66.33;100888.44;5050305;28;19924;-76
2022/09/24 00:56:01;;;;;;;;;;;;;;;13.65;67.42;100884.16;5052565;28;19955;-77
2022/09/24 00:58:27;;;;;;;;;;;;;;;13.64;66.82;100887.69;5056308;28;19920;-77
2022/09/24 01:00:57;;;;;;;;;;;;;;;13.57;66.59;100891.38;5055150;28;19920;-77
2022/09/24 01:03:23;;;;;;;;;;;;;;;13.57;66.90;100893.97;5049543;28;20277;-77
2022/09/24 01:05:48;;;;;;;;;;;;;;;13.46;67.52;100886.47;5049755;28;19921;-76
2022/09/24 01:08:15;;;;;;;;;;;;;;;13.51;67.54;100875.91;5050228;28;20427;-77
2022/09/24 01:10:50;;;;;;;;;;;;;;;13.51;67.58;100876.75;5051490;28;19939;-77
2022/09/24 01:13:18;;;;;;;;;;;;;;;13.52;67.14;100873.22;5051380;28;19932;-77
2022/09/24 01:15:49;;;;;;;;;;;;;;;13.54;67.36;100878.41;5054059;28;19917;-77
2022/09/24 01:18:14;;;;;;;;;;;;;;;13.58;67.24;100883.47;5053454;28;20346;-74
2022/09/24 01:20:50;;;;;;;;;;;;;;;13.54;67.29;100874.06;5054160;28;19920;-73
2022/09/24 01:23:18;;;;;;;;;;;;;;;13.47;67.25;100866.44;5047017;28;19970;-73
2022/09/24 01:25:46;;;;;;;;;;;;;;;13.51;67.63;100863.72;5060596;28;20441;-73
2022/09/24 01:28:18;;;;;;;;;;;;;;;13.50;67.48;100859.38;5054662;28;19921;-73
2022/09/24 01:30:46;;;;;;;;;;;;;;;13.52;67.01;100854.13;5046478;28;19948;-73
2022/09/24 01:33:15;;;;;;;;;;;;;;;13.45;67.31;100850.84;5048900;28;19924;-73
2022/09/24 01:35:46;;;;;;;;;;;;;;;13.48;67.09;100848.16;5051586;28;19932;-73
2022/09/24 01:38:24;;;;;;;;;;;;;;;13.52;67.47;100852.34;5028813;28;20306;-73
2022/09/24 01:40:50;;;;;;;;;;;;;;;13.50;66.78;100846.34;5045810;28;20313;-73
2022/09/24 01:43:16;;;;;;;;;;;;;;;13.43;66.89;100855.28;5029778;28;20010;-73
2022/09/24 01:45:42;;;;;;;;;;;;;;;13.40;67.22;100854.53;5030398;28;19936;-73
2022/09/24 01:48:07;;;;;;;;;;;;;;;13.34;67.42;100852.97;5025431;28;19921;-73
2022/09/24 01:50:47;;;;;;;;;;;;;;;13.38;66.78;100851.09;5010985;28;20337;-73
2022/09/24 01:53:18;;;;;;;;;;;;;;;13.40;67.06;100854.53;5028534;28;19921;-73
2022/09/24 01:55:48;;;;;;;;;;;;;;;13.41;66.95;100856.22;5044222;28;19929;-73
2022/09/24 01:58:17;;;;;;;;;;;;;;;13.42;66.72;100847.47;5056260;28;19921;-73
2022/09/24 02:00:44;;;;;;;;;;;;;;;13.41;66.75;100849.22;5049218;28;19924;-73
2022/09/24 02:03:22;;;;;;;;;;;;;;;13.37;66.47;100845.03;5047680;28;20235;-73
2022/09/24 02:05:50;;;;;;;;;;;;;;;13.39;66.44;100848.44;5049681;28;19931;-73
2022/09/24 02:08:18;;;;;;;;;;;;;;;13.34;66.49;100849.50;5049892;28;19935;-73
2022/09/24 02:10:47;;;;;;;;;;;;;;;13.33;66.50;100855.59;5050197;28;20046;-73
2022/09/24 02:13:14;;;;;;;;;;;;;;;13.35;66.58;100851.19;5049763;28;19920;-73
2022/09/24 02:15:41;;;;;;;;;;;;;;;13.28;66.78;100847.94;5050236;28;19924;-73
2022/09/24 02:18:08;;;;;;;;;;;;;;;13.33;67.08;100840.81;5045056;28;19925;-73
2022/09/24 02:20:34;;;;;;;;;;;;;;;13.35;66.51;100840.75;5012659;28;19921;-73
2022/09/24 02:23:01;;;;;;;;;;;;;;;13.27;66.82;100843.59;5035536;28;20458;-73
2022/09/24 02:25:36;;;;;;;;;;;;;;;13.26;66.95;100836.66;5028424;28;19958;-73
2022/09/24 02:28:02;;;;;;;;;;;;;;;13.27;66.90;100841.00;5028228;28;20396;-73
2022/09/24 02:30:27;;;;;;;;;;;;;;;13.25;66.85;100834.13;5037876;28;20016;-73
2022/09/24 02:32:54;;;;;;;;;;;;;;;13.25;67.03;100831.50;5027919;28;19929;-73
2022/09/24 02:35:19;;;;;;;;;;;;;;;13.26;66.79;100826.22;5027632;28;19917;-72
2022/09/24 02:37:46;;;;;;;;;;;;;;;13.21;67.30;100823.78;5029187;28;21199;-73
2022/09/24 02:40:13;;;;;;;;;;;;;;;13.23;66.88;100823.72;5034827;28;19925;-73
2022/09/24 02:42:41;;;;;;;;;;;;;;;13.21;66.79;100817.69;5039448;28;19921;-73
2022/09/24 02:45:06;;;;;;;;;;;;;;;13.20;66.79;100813.38;5051490;28;19999;-74
2022/09/24 02:47:31;;;;;;;;;;;;;;;13.18;66.50;100812.59;5051230;28;19955;-74
2022/09/24 02:49:57;;;;;;;;;;;;;;;13.08;66.42;100811.13;5031077;28;20365;-74
2022/09/24 02:52:22;;;;;;;;;;;;;;;13.12;66.74;100811.00;5046136;28;19932;-74
2022/09/24 02:54:49;;;;;;;;;;;;;;;13.05;66.79;100808.63;5044893;28;19983;-75
2022/09/24 02:57:15;;;;;;;;;;;;;;;13.07;66.74;100812.91;5040800;28;19921;-75
2022/09/24 02:59:40;;;;;;;;;;;;;;;13.06;66.47;100810.34;5027339;28;20364;-74
2022/09/24 03:02:06;;;;;;;;;;;;;;;13.07;66.63;100809.47;5028191;28;19963;-74
2022/09/24 03:04:31;;;;;;;;;;;;;;;13.13;66.67;100810.13;5037295;28;20292;-74
2022/09/24 03:06:56;;;;;;;;;;;;;;;13.14;66.28;100816.16;5031785;28;20363;-74
2022/09/24 03:09:21;;;;;;;;;;;;;;;13.13;66.02;100812.75;5027162;28;19921;-74
2022/09/24 03:11:47;;;;;;;;;;;;;;;13.19;66.43;100816.91;5034326;28;19917;-74
2022/09/24 03:14:12;;;;;;;;;;;;;;;13.25;66.48;100814.09;5023163;28;20486;-75
2022/09/24 03:16:37;;;;;;;;;;;;;;;13.17;66.05;100811.72;5028450;28;19975;-75
2022/09/24 03:19:03;;;;;;;;;;;;;;;13.12;65.98;100817.97;5041288;28;19968;-75
2022/09/24 03:21:28;;;;;;;;;;;;;;;13.14;66.30;100824.00;5048684;28;19929;-74
2022/09/24 03:23:53;;;;;;;;;;;;;;;13.13;65.80;100822.31;5047303;28;20742;-74
2022/09/24 03:26:19;;;;;;;;;;;;;;;13.09;65.91;100820.69;5033387;28;19963;-74
2022/09/24 03:28:44;;;;;;;;;;;;;;;13.12;66.27;100824.06;5031973;28;19928;-74
2022/09/24 03:31:09;;;;;;;;;;;;;;;13.14;66.54;100822.25;5026430;28;19921;-74
2022/09/24 03:33:35;;;;;;;;;;;;;;;13.15;66.13;100823.09;5035637;28;20427;-74
2022/09/24 03:36:00;;;;;;;;;;;;;;;13.15;66.84;100823.09;5043222;28;19925;-74
2022/09/24 03:38:26;;;;;;;;;;;;;;;13.20;66.32;100818.59;5041828;28;20023;-75
2022/09/24 03:40:51;;;;;;;;;;;;;;;13.13;66.41;100819.69;5027187;28;19921;-74
2022/09/24 03:43:17;;;;;;;;;;;;;;;13.11;66.77;100822.34;5027876;28;20255;-74
2022/09/24 03:45:42;;;;;;;;;;;;;;;13.25;66.51;100814.09;5033815;28;19929;-74
2022/09/24 03:48:07;;;;;;;;;;;;;;;13.24;66.81;100815.00;5035409;28;19929;-74
2022/09/24 03:50:36;;;;;;;;;;;;;;;13.26;66.74;100809.72;5023305;28;19947;-74
2022/09/24 03:53:01;;;;;;;;;;;;;;;13.17;67.14;100819.53;5030226;28;20024;-75
2022/09/24 03:55:26;;;;;;;;;;;;;;;13.16;67.44;100811.78;5031070;28;20343;-74
2022/09/24 03:57:51;;;;;;;;;;;;;;;13.19;67.70;100806.47;5034581;28;19921;-74
2022/09/24 04:00:17;;;;;;;;;;;;;;;13.27;67.21;100807.06;5031485;28;19921;-74
2022/09/24 04:02:42;;;;;;;;;;;;;;;13.23;67.28;100798.50;5026811;28;19921;-74
2022/09/24 04:05:07;;;;;;;;;;;;;;;13.18;67.18;100795.19;5028583;28;20378;-74
2022/09/24 04:07:32;;;;;;;;;;;;;;;13.23;66.99;100792.41;5027247;28;20007;-74
2022/09/24 04:09:58;;;;;;;;;;;;;;;13.25;66.97;100793.25;5035812;28;19925;-75
2022/09/24 04:12:23;;;;;;;;;;;;;;;13.26;66.72;100787.09;5038525;28;19925;-75
2022/09/24 04:14:48;;;;;;;;;;;;;;;13.17;67.36;100793.47;5034747;28;20933;-75
2022/09/24 04:17:14;;;;;;;;;;;;;;;13.22;67.08;100795.94;5033341;28;19913;-75
2022/09/24 04:19:39;;;;;;;;;;;;;;;13.10;66.99;100788.50;5028981;28;20020;-75
2022/09/24 04:22:05;;;;;;;;;;;;;;;13.14;66.63;100788.34;5035299;28;19928;-76
2022/09/24 04:24:33;;;;;;;;;;;;;;;13.21;67.00;100786.41;5005127;28;20000;-75
2022/09/24 04:26:58;;;;;;;;;;;;;;;13.21;67.08;100783.78;5045284;28;20529;-76
2022/09/24 04:29:23;;;;;;;;;;;;;;;13.22;67.05;100785.50;5054124;28;19963;-75
2022/09/24 04:31:49;;;;;;;;;;;;;;;13.17;67.97;100782.16;5033105;28;19921;-75
2022/09/24 04:34:14;;;;;;;;;;;;;;;13.20;67.10;100776.84;5032356;28;20399;-75
2022/09/24 04:36:39;;;;;;;;;;;;;;;13.20;66.95;100780.31;5030745;28;19921;-75
2022/09/24 04:39:05;;;;;;;;;;;;;;;13.23;67.07;100766.31;5031574;28;19974;-75
2022/09/24 04:41:30;;;;;;;;;;;;;;;13.23;66.71;100766.31;5034071;28;19992;-75
2022/09/24 04:43:56;;;;;;;;;;;;;;;13.14;66.92;100759.66;5028888;28;19917;-75
2022/09/24 04:46:21;;;;;;;;;;;;;;;13.18;66.81;100756.06;5031743;28;19917;-75
2022/09/24 04:48:46;;;;;;;;;;;;;;;13.26;67.01;100761.00;5030981;28;19929;-75
2022/09/24 04:51:12;;;;;;;;;;;;;;;13.31;66.69;100758.28;5031758;28;20227;-75
2022/09/24 04:53:37;;;;;;;;;;;;;;;13.32;67.02;100760.81;5035619;28;19967;-75
2022/09/24 04:56:03;;;;;;;;;;;;;;;13.32;66.55;100752.13;5065623;28;20024;-75
2022/09/24 04:58:28;;;;;;;;;;;;;;;13.29;66.60;100752.22;5054396;28;20024;-75
2022/09/24 05:00:54;;;;;;;;;;;;;;;13.29;66.52;100753.09;5052055;28;19920;-76
2022/09/24 05:03:22;;;;;;;;;;;;;;;13.24;66.84;100744.56;5049857;28;19921;-76
2022/09/24 05:05:48;;;;;;;;;;;;;;;13.20;66.90;100750.78;5050737;28;19920;-76
2022/09/24 05:08:14;;;;;;;;;;;;;;;13.21;67.09;100753.34;5049556;28;19991;-75
2022/09/24 05:10:39;;;;;;;;;;;;;;;13.13;66.85;100752.75;5047872;28;20016;-75
2022/09/24 05:13:05;;;;;;;;;;;;;;;13.16;67.33;100757.88;5049016;28;19920;-75
2022/09/24 05:15:30;;;;;;;;;;;;;;;13.18;67.36;100753.44;5032905;28;20000;-75
2022/09/24 05:17:56;;;;;;;;;;;;;;;13.07;67.09;100752.09;5050155;28;19971;-75
2022/09/24 05:20:21;;;;;;;;;;;;;;;13.02;67.03;100756.56;5045877;28;19951;-75
2022/09/24 05:22:48;;;;;;;;;;;;;;;13.05;67.37;100756.47;5034552;28;20447;-75
2022/09/24 05:25:14;;;;;;;;;;;;;;;13.10;66.67;100759.81;5057277;28;19968;-75
2022/09/24 05:27:46;;;;;;;;;;;;;;;13.06;67.22;100769.47;5052260;28;19947;-75
2022/09/24 05:30:11;;;;;;;;;;;;;;;13.06;67.14;100766.00;5044929;28;19921;-76
2022/09/24 05:32:37;;;;;;;;;;;;;;;12.98;67.34;100761.03;5032508;28;20517;-76
2022/09/24 05:35:03;;;;;;;;;;;;;;;12.95;67.15;100766.34;5028845;28;20362;-75
2022/09/24 05:37:28;;;;;;;;;;;;;;;13.00;67.05;100760.97;5030615;28;19928;-76
2022/09/24 05:39:53;;;;;;;;;;;;;;;13.03;67.10;100756.53;5032080;28;19917;-75
2022/09/24 05:42:19;;;;;;;;;;;;;;;12.99;66.56;100765.34;5032315;28;20460;-75
2022/09/24 05:44:44;;;;;;;;;;;;;;;13.01;66.98;100767.91;5031328;28;19963;-75
2022/09/24 05:47:09;;;;;;;;;;;;;;;12.97;66.99;100766.28;5035562;28;20358;-75
2022/09/24 05:49:34;;;;;;;;;;;;;;;13.06;66.26;100773.84;5030950;28;19917;-75
2022/09/24 05:52:00;;;;;;;;;;;;;;;13.00;67.20;100774.03;5029325;28;19959;-76
2022/09/24 05:54:25;;;;;;;;;;;;;;;13.01;66.96;100775.75;5030454;28;20386;-75
2022/09/24 05:56:51;;;;;;;;;;;;;;;13.09;66.52;100763.31;5030321;28;19918;-75
2022/09/24 05:59:16;;;;;;;;;;;;;;;13.13;65.78;100772.75;5032713;28;19917;-75
2022/09/24 06:01:41;;;;;;;;;;;;;;;13.09;66.63;100773.75;5030268;28;20458;-75
2022/09/24 06:04:08;;;;;;;;;;;;;;;13.02;66.45;100782.63;5031950;28;19917;-75
2022/09/24 06:06:34;;;;;;;;;;;;;;;13.05;66.66;100782.53;5029273;28;20480;-75
2022/09/24 06:08:59;;;;;;;;;;;;;;;13.09;66.67;100779.81;5025983;28;19928;-75
2022/09/24 06:11:26;;;;;;;;;;;;;;;13.05;67.23;100786.00;5029520;28;19924;-75
2022/09/24 06:13:52;;;;;;;;;;;;;;;13.06;66.47;100785.13;5029788;28;20278;-75
2022/09/24 06:16:17;;;;;;;;;;;;;;;13.10;66.45;100785.88;5024745;28;19928;-76
2022/09/24 06:18:43;;;;;;;;;;;;;;;13.11;66.65;100785.81;5048684;28;19924;-76
2022/09/24 06:21:12;;;;;;;;;;;;;;;13.13;66.56;100791.88;5047978;28;19936;-74
2022/09/24 06:23:38;;;;;;;;;;;;;;;13.09;66.75;100786.78;5052641;28;19936;-75
2022/09/24 06:26:04;;;;;;;;;;;;;;;13.09;66.64;100795.47;5052998;28;19920;-75
2022/09/24 06:28:30;;;;;;;;;;;;;;;13.13;66.97;100788.41;5053442;28;19921;-75
2022/09/24 06:30:57;;;;;;;;;;;;;;;13.07;66.59;100793.81;5047540;28;20012;-76
2022/09/24 06:33:23;;;;;;;;;;;;;;;13.11;66.80;100800.63;5046135;28;19932;-76
2022/09/24 06:35:48;;;;;;;;;;;;;;;13.18;66.88;100796.94;5053730;28;20294;-75
2022/09/24 06:38:15;;;;;;;;;;;;;;;13.13;66.62;100793.63;5029745;28;19925;-76
2022/09/24 06:40:41;;;;;;;;;;;;;;;13.20;66.48;100800.34;5031935;28;20031;-75
2022/09/24 06:43:06;;;;;;;;;;;;;;;13.18;67.13;100800.41;5019053;28;20539;-75
2022/09/24 06:45:32;;;;;;;;;;;;;;;13.21;66.88;100810.72;5039894;28;20347;-75
2022/09/24 06:47:58;;;;;;;;;;;;;;;13.19;66.80;100806.47;5026997;28;20004;-76
2022/09/24 06:50:26;;;;;;;;;;;;;;;13.27;66.51;100801.84;5027998;28;19925;-76
2022/09/24 06:52:52;;;;;;;;;;;;;;;13.22;66.97;100799.38;5027375;28;19932;-76
2022/09/24 06:55:20;;;;;;;;;;;;;;;13.28;66.69;100807.94;5030048;28;20535;-76
2022/09/24 06:57:45;;;;;;;;;;;;;;;13.30;66.83;100806.13;5026150;28;19929;-75
2022/09/24 07:00:12;;;;;;;;;;;;;;;13.30;66.56;100803.50;5026187;28;20404;-76
2022/09/24 07:02:37;;;;;;;;;;;;;;;13.36;66.99;100812.00;5028378;28;19917;-76
2022/09/24 07:05:03;;;;;;;;;;;;;;;13.39;66.66;100811.91;5032648;28;19921;-76
2022/09/24 07:07:28;;;;;;;;;;;;;;;13.25;66.51;100818.47;5048584;28;20011;-76
2022/09/24 07:09:54;;;;;;;;;;;;;;;13.32;67.57;100813.00;5052822;28;20404;-73
2022/09/24 07:12:19;;;;;;;;;;;;;;;13.33;66.75;100808.63;5050700;28;19932;-73
2022/09/24 07:14:45;;;;;;;;;;;;;;;13.38;66.89;100817.16;5048771;28;20435;-74
2022/09/24 07:17:10;;;;;;;;;;;;;;;13.47;67.14;100816.88;5050565;28;20290;-73
2022/09/24 07:19:37;;;;;;;;;;;;;;;13.52;66.61;100815.00;5053174;28;19921;-74
2022/09/24 07:22:02;;;;;;;;;;;;;;;13.46;66.62;100808.19;5049596;28;19928;-74
2022/09/24 07:24:27;;;;;;;;;;;;;;;13.49;67.10;100802.88;5053230;28;19917;-73
2022/09/24 07:26:53;;;;;;;;;;;;;;;13.49;67.50;100812.47;5028596;28;19925;-73
2022/09/24 07:29:18;;;;;;;;;;;;;;;13.55;66.81;100807.06;5026809;28;19925;-73
2022/09/24 07:31:43;;;;;;;;;;;;;;;13.56;66.27;100809.59;5031207;28;19928;-74
2022/09/24 07:34:09;;;;;;;;;;;;;;;13.61;66.78;100806.88;5031030;28;19925;-73
2022/09/24 07:36:34;;;;;;;;;;;;;;;13.66;66.86;100808.41;5029851;28;19921;-73
2022/09/24 07:39:00;;;;;;;;;;;;;;;13.66;67.12;100810.16;5028088;28;19929;-73
2022/09/24 07:41:25;;;;;;;;;;;;;;;13.71;66.43;100814.34;5028312;28;19919;-73
2022/09/24 07:43:50;;;;;;;;;;;;;;;13.69;66.43;100813.56;5024680;28;19921;-73
2022/09/24 07:46:16;;;;;;;;;;;;;;;13.75;66.36;100813.38;5040495;28;19917;-73
2022/09/24 07:48:41;;;;;;;;;;;;;;;13.73;66.47;100809.94;5025590;28;19921;-73
2022/09/24 07:51:10;;;;;;;;;;;;;;;13.71;65.64;100813.50;5026976;28;19957;-74
2022/09/24 07:53:36;;;;;;;;;;;;;;;13.73;66.50;100820.38;5028894;28;19968;-73
2022/09/24 07:56:04;;;;;;;;;;;;;;;13.72;66.64;100810.84;5026197;28;20474;-73
2022/09/24 07:58:29;;;;;;;;;;;;;;;13.72;66.71;100826.53;5014474;28;19921;-73
2022/09/24 08:00:58;;;;;;;;;;;;;;;13.78;66.61;100825.47;5028242;28;19943;-73
2022/09/24 08:03:24;;;;;;;;;;;;;;;13.83;66.85;100822.69;5026176;28;20012;-74
2022/09/24 08:05:50;;;;;;;;;;;;;;;13.84;66.92;100827.00;5009729;28;20024;-73
2022/09/24 08:08:15;;;;;;;;;;;;;;;13.82;67.31;100821.00;5045231;28;19960;-74
2022/09/24 08:10:41;;;;;;;;;;;;;;;13.87;67.49;100822.53;5028219;28;19925;-73
2022/09/24 08:13:07;;;;;;;;;;;;;;;13.87;66.50;100824.28;5027013;28;19925;-73
2022/09/24 08:15:32;;;;;;;;;;;;;;;13.95;66.96;100822.28;5028922;28;19929;-73
2022/09/24 08:18:02;;;;;;;;;;;;;;;13.95;67.02;100820.53;5029867;28;19943;-73
2022/09/24 08:20:28;;;;;;;;;;;;;;;13.90;66.96;100824.19;5031235;28;19917;-74
2022/09/24 08:22:53;;;;;;;;;;;;;;;13.89;67.54;100822.47;5022520;28;20382;-74
2022/09/24 08:25:18;;;;;;;;;;;;;;;13.93;67.79;100829.31;5027083;28;19995;-73
2022/09/24 08:27:44;;;;;;;;;;;;;;;13.94;67.92;100831.84;5028595;28;20832;-73
2022/09/24 08:30:09;;;;;;;;;;;;;;;13.93;67.71;100829.31;5033576;28;19944;-73
2022/09/24 08:32:35;;;;;;;;;;;;;;;13.96;67.90;100822.22;5027751;28;19991;-73
2022/09/24 08:35:00;;;;;;;;;;;;;;;13.94;68.19;100831.84;5028755;28;20341;-73
2022/09/24 08:37:28;;;;;;;;;;;;;;;13.99;68.57;100829.09;5049989;28;19923;-73
2022/09/24 08:39:53;;;;;;;;;;;;;;;13.98;68.51;100835.22;5051973;28;19927;-73
2022/09/24 08:42:42;;;;;;;;;;;;;;;14.03;68.69;100830.69;5046902;28;20004;-73
2022/09/24 08:47:56;;;;;;;;;;;;;;;14.09;68.20;100831.34;5045411;28;19975;-73
2022/09/24 08:50:29;;;;;;;;;;;;;;;14.06;68.19;100830.59;5047007;28;19952;-73
2022/09/24 08:53:32;;;;;;;;;;;;;;;14.07;68.79;100840.13;5049576;28;20311;-73
2022/09/24 08:55:59;;;;;;;;;;;;;;;14.08;68.58;100832.25;4986286;28;20054;-73
2022/09/24 08:58:43;;;;;;;;;;;;;;;14.08;68.37;100828.78;4989670;28;19925;-73
2022/09/24 09:01:11;;;;;;;;;;;;;;;14.13;68.58;100829.47;5021371;28;20692;-74
2022/09/24 09:03:48;;;;;;;;;;;;;;;14.14;68.12;100833.81;5049108;28;20338;-73
2022/09/24 09:06:32;;;;;;;;;;;;;;;14.18;68.49;100835.38;5049465;28;19923;-73
2022/09/24 09:09:01;;;;;;;;;;;;;;;14.25;68.44;100840.38;5048827;28;19921;-73
2022/09/24 09:11:29;;;;;;;;;;;;;;;14.26;67.71;100833.38;5052111;28;20380;-73
2022/09/24 09:13:57;;;;;;;;;;;;;;;14.23;67.79;100828.28;5054840;28;19928;-73
2022/09/24 09:16:22;;;;;;;;;;;;;;;14.27;66.79;100829.84;5051762;28;19924;-73
2022/09/24 09:18:50;;;;;;;;;;;;;;;14.22;66.86;100831.78;5047576;28;19921;-73
2022/09/24 09:21:25;;;;;;;;;;;;;;;14.20;66.65;100829.22;5059530;28;19917;-77
2022/09/24 09:23:51;;;;;;;;;;;;;;;14.25;66.55;100827.31;5048344;28;20014;-77
2022/09/24 09:26:17;;;;;;;;;;;;;;;14.33;66.62;100827.00;5051849;28;19948;-77
2022/09/24 09:28:43;;;;;;;;;;;;;;;14.31;66.27;100823.63;5050197;28;19943;-77
2022/09/24 09:31:21;;;;;;;;;;;;;;;14.45;65.50;100826.59;5050314;28;20405;-77
2022/09/24 09:33:58;;;;;;;;;;;;;;;14.53;65.80;100826.31;5055082;28;19924;-77
2022/09/24 09:36:42;;;;;;;;;;;;;;;14.55;66.25;100824.50;5049310;28;20066;-77
2022/09/24 09:39:27;;;;;;;;;;;;;;;14.56;65.53;100824.44;5025850;28;19960;-77
2022/09/24 09:42:02;;;;;;;;;;;;;;;14.51;65.08;100833.34;5029467;28;19932;-77
2022/09/24 09:44:28;;;;;;;;;;;;;;;14.60;65.55;100833.00;5029860;28;19923;-76
2022/09/24 09:46:59;;;;;;;;;;;;;;;14.65;65.29;100824.09;5030563;28;19925;-77
2022/09/24 09:49:28;;;;;;;;;;;;;;;14.62;65.69;100829.44;5022610;28;19925;-77
2022/09/24 09:51:55;;;;;;;;;;;;;;;14.67;65.73;100827.53;5028720;28;19925;-77
2022/09/24 09:54:20;;;;;;;;;;;;;;;14.66;66.41;100836.25;5030350;28;19961;-77
2022/09/24 09:56:49;;;;;;;;;;;;;;;14.66;66.53;100840.63;5036994;28;19955;-77
2022/09/24 09:59:14;;;;;;;;;;;;;;;14.69;65.70;100830.94;5034877;28;19917;-77
2022/09/24 10:01:40;;;;;;;;;;;;;;;14.71;66.60;100836.13;5030511;28;19921;-77
2022/09/24 10:04:22;;;;;;;;;;;;;;;14.73;66.39;100835.16;5034094;28;20296;-77
2022/09/24 10:06:48;;;;;;;;;;;;;;;14.75;66.61;100833.34;5033099;28;20008;-75
2022/09/24 10:09:20;;;;;;;;;;;;;;;14.76;66.91;100834.22;5034068;28;20364;-75
2022/09/24 10:11:46;;;;;;;;;;;;;;;14.77;66.23;100833.28;5031997;28;19921;-76
2022/09/24 10:14:13;;;;;;;;;;;;;;;14.77;66.06;100836.75;5030640;28;20023;-75
2022/09/24 10:16:40;;;;;;;;;;;;;;;14.86;65.96;100832.94;5048052;28;19927;-75
2022/09/24 10:19:15;;;;;;;;;;;;;;;14.79;66.10;100834.09;5031194;28;20306;-75
2022/09/24 10:21:40;;;;;;;;;;;;;;;14.85;65.55;100826.88;5043285;28;19928;-75
2022/09/24 10:24:10;;;;;;;;;;;;;;;14.81;65.75;100827.03;5027657;28;19921;-75
2022/09/24 10:26:37;;;;;;;;;;;;;;;14.90;65.66;100816.22;5028814;28;20397;-75
2022/09/24 10:31:47;;;;;;;;;;;;;;;14.92;66.16;100813.56;5029269;28;19927;-76
2022/09/24 10:34:25;;;;;;;;;;;;;;;14.92;65.91;100803.94;5032410;28;19933;-76
2022/09/24 10:37:01;;;;;;;;;;;;;;;14.93;65.97;100813.50;5029066;28;20313;-75
2022/09/24 10:39:27;;;;;;;;;;;;;;;14.97;66.24;100814.25;5021125;28;19948;-76
2022/09/24 10:41:55;;;;;;;;;;;;;;;14.94;65.15;100817.81;5028389;28;19955;-75
2022/09/24 10:44:20;;;;;;;;;;;;;;;14.99;66.19;100815.03;5028314;28;20639;-76
2022/09/24 10:47:06;;;;;;;;;;;;;;;14.98;66.36;100818.56;5030107;28;19927;-76
2022/09/24 10:49:32;;;;;;;;;;;;;;;15.02;65.24;100812.28;5024647;28;19971;-76
2022/09/24 10:52:00;;;;;;;;;;;;;;;15.02;65.39;100812.28;5006354;28;19944;-75
2022/09/24 10:54:25;;;;;;;;;;;;;;;14.98;66.27;100808.09;5024103;28;20394;-76
2022/09/24 10:56:52;;;;;;;;;;;;;;;14.97;65.28;100801.16;5028914;28;19928;-76
2022/09/24 10:59:26;;;;;;;;;;;;;;;14.95;65.54;100803.81;5031112;28;19916;-76
2022/09/24 11:01:52;;;;;;;;;;;;;;;14.95;65.38;100805.59;5027121;28;19925;-76
2022/09/24 11:04:19;;;;;;;;;;;;;;;14.96;65.24;100799.44;5027383;28;19928;-76
2022/09/24 11:06:50;;;;;;;;;;;;;;;14.96;65.23;100794.22;5028643;28;19921;-75
2022/09/24 11:09:15;;;;;;;;;;;;;;;14.91;65.62;100802.25;5026052;28;19933;-75
2022/09/24 11:11:49;;;;;;;;;;;;;;;14.95;65.05;100797.75;5025054;28;20004;-75
2022/09/24 11:14:45;;;;;;;;;;;;;;;14.93;65.12;100795.19;5028412;28;19987;-75
2022/09/24 11:17:16;;;;;;;;;;;;;;;14.97;65.07;100790.69;4986920;28;20317;-76
2022/09/24 11:19:57;;;;;;;;;;;;;;;14.99;65.24;100796.72;5029514;28;19921;-76
2022/09/24 11:22:32;;;;;;;;;;;;;;;15.04;64.47;100794.75;5032664;28;20229;-76
2022/09/24 11:25:03;;;;;;;;;;;;;;;15.05;65.03;100797.31;5005354;28;19932;-76
2022/09/24 11:27:48;;;;;;;;;;;;;;;15.00;64.47;100796.66;5027880;28;20133;-75
2022/09/24 11:30:15;;;;;;;;;;;;;;;15.06;65.44;100801.66;5025755;28;19920;-76
2022/09/24 11:33:00;;;;;;;;;;;;;;;15.08;65.64;100794.59;5053667;28;19921;-75
2022/09/24 11:35:25;;;;;;;;;;;;;;;15.09;65.33;100793.69;5050837;28;19917;-75
2022/09/24 11:38:16;;;;;;;;;;;;;;;15.09;64.65;100791.09;5054093;28;19916;-75
2022/09/24 11:40:42;;;;;;;;;;;;;;;15.08;65.56;100784.13;5047563;28;20579;-75
2022/09/24 11:43:17;;;;;;;;;;;;;;;15.09;65.25;100792.84;5047338;28;19971;-75
2022/09/24 11:46:01;;;;;;;;;;;;;;;15.13;65.24;100787.41;5055953;28;20396;-75
2022/09/24 11:48:56;;;;;;;;;;;;;;;15.18;65.37;100795.09;5045790;28;20034;-75
2022/09/24 11:51:38;;;;;;;;;;;;;;;15.16;64.22;100786.44;4959629;28;19929;-75
2022/09/24 11:54:12;;;;;;;;;;;;;;;15.13;64.52;100786.56;5047656;28;20017;-75
2022/09/24 11:56:39;;;;;;;;;;;;;;;15.13;62.98;100778.69;5053730;28;20301;-75
2022/09/24 11:59:11;;;;;;;;;;;;;;;15.13;63.56;100778.69;5044665;28;19925;-75
2022/09/24 12:01:39;;;;;;;;;;;;;;;15.16;63.91;100781.19;5025319;28;19925;-75
2022/09/24 12:04:10;;;;;;;;;;;;;;;15.14;63.83;100777.81;5024417;28;19947;-75
2022/09/24 12:06:41;;;;;;;;;;;;;;;15.19;64.71;100778.47;5023330;28;20236;-75
2022/09/24 12:09:12;;;;;;;;;;;;;;;15.13;64.00;100771.72;5029295;28;19925;-75
2022/09/24 12:12:01;;;;;;;;;;;;;;;15.15;65.12;100776.91;5028195;28;19939;-75
2022/09/24 12:14:36;;;;;;;;;;;;;;;15.08;64.11;100778.91;5028789;28;19932;-74
2022/09/24 12:17:04;;;;;;;;;;;;;;;15.09;64.96;100775.38;5035201;28;20316;-75
2022/09/24 12:19:34;;;;;;;;;;;;;;;15.09;64.43;100774.53;5055862;28;19929;-75
2022/09/24 12:22:00;;;;;;;;;;;;;;;15.11;65.12;100778.78;5035431;28;19921;-75
2022/09/24 12:24:33;;;;;;;;;;;;;;;15.13;65.58;100773.47;5028062;28;19987;-75
2022/09/24 12:27:01;;;;;;;;;;;;;;;15.15;65.93;100776.91;5027119;28;19928;-75
2022/09/24 12:32:55;;;;;;;;;;;;;;;15.19;66.33;100779.31;5028081;28;19925;-75
2022/09/24 12:35:39;;;;;;;;;;;;;;;15.18;64.95;100774.16;5029287;28;19925;-73
2022/09/24 12:38:07;;;;;;;;;;;;;;;15.18;65.83;100774.16;5038479;28;20016;-75
2022/09/24 12:40:35;;;;;;;;;;;;;;;15.17;65.48;100778.53;5037164;28;19921;-75
2022/09/24 12:43:03;;;;;;;;;;;;;;;15.15;64.98;100771.66;5031139;28;20012;-75
2022/09/24 12:45:29;;;;;;;;;;;;;;;15.17;66.13;100781.16;5030449;28;19952;-75
2022/09/24 12:47:59;;;;;;;;;;;;;;;15.21;65.92;100776.66;5030169;28;20298;-75
2022/09/24 12:50:26;;;;;;;;;;;;;;;15.15;65.12;100774.28;5031757;28;19925;-75
2022/09/24 12:52:51;;;;;;;;;;;;;;;15.23;65.86;100774.81;5031411;28;20390;-75